createdAt,value
2022-11-05T04:00:46.222Z,6.18
2022-11-05T04:03:14.220Z,1.67
2022-11-05T04:05:42.290Z,1.98
2022-11-05T04:08:28.109Z,3.17
2022-11-05T04:11:21.726Z,2.33
2022-11-05T04:13:49.586Z,1.38
2022-11-05T04:16:36.214Z,1.15
2022-11-05T04:19:04.247Z,1.40
2022-11-05T04:21:49.827Z,1.88
2022-11-05T04:24:17.680Z,2.25
2022-11-05T04:26:45.927Z,2.15
2022-11-05T04:29:31.694Z,1.80
2022-11-05T04:32:00.886Z,2.35
2022-11-05T04:34:28.865Z,3.22
2022-11-05T04:36:56.701Z,5.53
2022-11-05T04:39:24.553Z,4.07
2022-11-05T04:41:52.416Z,5.20
2022-11-05T04:44:20.247Z,3.97
2022-11-05T04:46:48.111Z,2.42
2022-11-05T04:49:17.328Z,4.53
2022-11-05T04:51:45.237Z,2.45
2022-11-05T04:54:13.590Z,4.43
2022-11-05T04:56:41.471Z,4.80
2022-11-05T04:59:09.316Z,4.22
2022-11-05T05:01:37.306Z,5.68
2022-11-05T05:04:05.569Z,4.68
2022-11-05T05:06:34.777Z,5.95
2022-11-05T05:09:02.635Z,7.47
2022-11-05T05:11:30.476Z,6.00
2022-11-05T05:13:58.999Z,8.75
2022-11-05T05:16:28.070Z,10.13
2022-11-05T05:18:56.358Z,8.65
2022-11-05T05:21:42.117Z,9.07
2022-11-05T05:24:13.141Z,8.77
2022-11-05T05:26:43.021Z,9.75
2022-11-05T05:29:11.881Z,10.98
2022-11-05T05:31:40.008Z,9.65
2022-11-05T05:34:08.844Z,10.52
2022-11-05T05:36:37.808Z,10.95
2022-11-05T05:39:07.152Z,12.05
2022-11-05T05:41:36.351Z,10.35
2022-11-05T05:44:06.196Z,10.90
2022-11-05T05:46:34.126Z,9.35
2022-11-05T05:49:02.004Z,7.97
2022-11-05T05:51:29.879Z,12.70
2022-11-05T05:53:58.477Z,11.68
2022-11-05T05:56:26.325Z,8.30
2022-11-05T05:58:55.664Z,9.52
2022-11-05T06:01:23.961Z,9.18
2022-11-05T06:03:51.940Z,6.97
2022-11-05T06:06:20.946Z,9.93
2022-11-05T06:08:49.375Z,9.80
2022-11-05T06:11:17.460Z,11.80
2022-11-05T06:13:45.348Z,10.18
2022-11-05T06:16:14.576Z,11.48
2022-11-05T06:18:42.616Z,8.27
2022-11-05T06:21:12.745Z,10.88
2022-11-05T06:23:43.766Z,8.93
2022-11-05T06:26:13.566Z,9.82
2022-11-05T06:28:42.427Z,10.60
2022-11-05T06:31:10.777Z,10.90
2022-11-05T06:33:40.681Z,11.85
2022-11-05T06:36:09.803Z,10.40
2022-11-05T06:38:37.958Z,11.15
2022-11-05T06:41:10.293Z,12.90
2022-11-05T06:43:39.355Z,11.13
2022-11-05T06:46:07.541Z,10.05
2022-11-05T06:48:36.053Z,13.75
2022-11-05T06:51:06.303Z,9.23
2022-11-05T06:53:34.302Z,13.73
2022-11-05T06:56:06.480Z,11.65
2022-11-05T06:58:34.846Z,11.73
2022-11-05T07:01:03.108Z,11.38
2022-11-05T07:03:31.078Z,12.10
2022-11-05T07:06:00.744Z,10.05
2022-11-05T07:08:32.493Z,10.88
2022-11-05T07:11:00.907Z,7.97
2022-11-05T07:13:28.765Z,10.10
2022-11-05T07:15:56.961Z,11.55
2022-11-05T07:18:25.293Z,11.90
2022-11-05T07:20:53.174Z,10.93
2022-11-05T07:23:21.024Z,8.32
2022-11-05T07:25:50.232Z,8.70
2022-11-05T07:28:18.065Z,8.00
2022-11-05T07:30:45.924Z,10.32
2022-11-05T07:33:14.235Z,11.80
2022-11-05T07:35:42.312Z,11.02
2022-11-05T07:38:10.552Z,7.05
2022-11-05T07:40:38.405Z,9.27
2022-11-05T07:43:07.629Z,8.25
2022-11-05T07:45:35.489Z,8.25
2022-11-05T07:48:05.066Z,11.57
2022-11-05T07:50:34.801Z,10.30
2022-11-05T07:53:03.293Z,6.97
2022-11-05T07:55:31.643Z,7.78
2022-11-05T07:57:59.672Z,8.23
2022-11-05T08:00:29.528Z,5.43
2022-11-05T08:03:05.548Z,11.25
2022-11-05T08:05:37.538Z,9.18
2022-11-05T08:08:07.069Z,8.52
2022-11-05T08:10:35.387Z,7.47
2022-11-05T08:13:03.697Z,7.35
2022-11-05T08:15:33.084Z,10.48
2022-11-05T08:18:01.717Z,6.50
2022-11-05T08:20:29.936Z,8.40
2022-11-05T08:22:58.396Z,7.32
2022-11-05T08:25:26.920Z,7.60
2022-11-05T08:27:58.615Z,7.57
2022-11-05T08:30:26.809Z,8.55
2022-11-05T08:33:00.004Z,8.77
2022-11-05T08:35:28.580Z,9.07
2022-11-05T08:37:58.930Z,10.43
2022-11-05T08:40:26.957Z,9.95
2022-11-05T08:42:57.646Z,10.00
2022-11-05T08:45:25.708Z,9.85
2022-11-05T08:47:59.685Z,9.50
2022-11-05T08:50:27.625Z,8.73
2022-11-05T08:52:55.755Z,12.27
2022-11-05T08:55:23.705Z,14.40
2022-11-05T08:57:56.597Z,9.73
2022-11-05T09:00:24.878Z,7.97
2022-11-05T09:02:52.749Z,10.35
2022-11-05T09:05:22.002Z,10.48
2022-11-05T09:07:49.859Z,12.80
2022-11-05T09:10:17.837Z,10.77
2022-11-05T09:12:45.806Z,11.23
2022-11-05T09:15:13.661Z,11.35
2022-11-05T09:17:41.752Z,11.15
2022-11-05T09:20:11.869Z,11.73
2022-11-05T09:22:43.460Z,11.93
2022-11-05T09:25:11.597Z,10.02
2022-11-05T09:27:39.483Z,12.25
2022-11-05T09:30:08.479Z,10.98
2022-11-05T09:32:36.336Z,13.35
2022-11-05T09:35:04.694Z,17.58
2022-11-05T09:37:32.873Z,12.00
2022-11-05T09:40:02.384Z,11.52
2022-11-05T09:42:35.695Z,10.13
2022-11-05T09:45:06.469Z,10.70
2022-11-05T09:47:37.817Z,9.82
2022-11-05T09:50:09.993Z,9.20
2022-11-05T09:52:37.890Z,7.78
2022-11-05T09:55:19.685Z,9.50
2022-11-05T09:57:53.262Z,7.30
2022-11-05T10:00:21.726Z,7.72
2022-11-05T10:02:51.761Z,6.53
2022-11-05T10:05:21.432Z,8.07
2022-11-05T10:07:52.197Z,7.82
2022-11-05T10:10:29.549Z,9.95
2022-11-05T10:13:02.683Z,6.47
2022-11-05T10:15:34.239Z,6.88
2022-11-05T10:18:08.425Z,13.43
2022-11-05T10:20:38.492Z,8.18
2022-11-05T10:23:12.468Z,10.48
2022-11-05T10:25:44.853Z,6.88
2022-11-05T10:28:17.454Z,6.68
2022-11-05T10:30:46.714Z,6.53
2022-11-05T10:33:20.668Z,5.35
2022-11-05T10:35:51.762Z,6.55
2022-11-05T10:38:19.669Z,5.05
2022-11-05T10:40:58.619Z,7.80
2022-11-05T10:43:32.693Z,5.72
2022-11-05T10:46:14.949Z,6.97
2022-11-05T10:48:54.069Z,5.32
2022-11-05T10:51:21.955Z,6.20
2022-11-05T10:54:01.377Z,6.80
2022-11-05T10:56:33.865Z,3.75
2022-11-05T10:59:05.637Z,5.60
2022-11-05T11:01:37.823Z,7.55
2022-11-05T11:04:18.396Z,5.25
2022-11-05T11:06:50.682Z,6.38
2022-11-05T11:09:25.412Z,5.18
2022-11-05T11:12:08.057Z,5.13
2022-11-05T11:14:36.006Z,7.47
2022-11-05T11:17:27.665Z,2.83
2022-11-05T11:20:21.970Z,5.72
2022-11-05T11:23:04.872Z,4.88
2022-11-05T11:25:38.758Z,4.40
2022-11-05T11:28:15.060Z,5.78
2022-11-05T11:30:50.045Z,6.28
2022-11-05T11:33:23.396Z,5.68
2022-11-05T11:35:51.325Z,4.70
2022-11-05T11:38:19.384Z,2.20
2022-11-05T11:40:47.353Z,3.78
2022-11-05T11:43:26.406Z,3.35
2022-11-05T11:46:00.663Z,2.75
2022-11-05T11:48:35.014Z,3.47
2022-11-05T11:51:17.791Z,2.55
2022-11-05T11:53:47.964Z,2.88
2022-11-05T11:56:18.468Z,6.75
2022-11-05T11:58:49.610Z,3.72
2022-11-05T12:01:54.461Z,5.47
2022-11-05T12:04:57.856Z,4.68
2022-11-05T12:07:52.668Z,3.58
2022-11-05T12:10:38.991Z,5.20
2022-11-05T12:13:42.295Z,2.47
2022-11-05T12:16:21.200Z,3.65
2022-11-05T12:18:55.528Z,3.75
2022-11-05T12:21:51.591Z,7.75
2022-11-05T12:24:39.211Z,5.45
2022-11-05T12:27:21.389Z,3.42
2022-11-05T12:29:58.495Z,2.72
2022-11-05T12:32:43.752Z,3.92
2022-11-05T12:35:23.956Z,3.95
2022-11-05T12:38:00.955Z,3.58
2022-11-05T12:40:53.294Z,2.42
2022-11-05T12:43:31.089Z,3.30
2022-11-05T12:46:04.690Z,3.75
2022-11-05T12:48:57.454Z,2.45
2022-11-05T12:51:38.612Z,3.17
2022-11-05T12:54:19.685Z,2.40
2022-11-05T12:56:52.409Z,2.03
2022-11-05T12:59:24.083Z,3.35
2022-11-05T13:01:56.499Z,4.38
2022-11-05T13:04:34.683Z,2.53
2022-11-05T13:07:06.326Z,2.40
2022-11-05T13:09:39.687Z,3.78
2022-11-05T13:12:11.286Z,2.35
2022-11-05T13:14:44.284Z,3.47
2022-11-05T13:17:15.970Z,5.75
2022-11-05T13:19:53.408Z,3.38
2022-11-05T13:22:30.871Z,4.30
2022-11-05T13:25:03.465Z,1.50
2022-11-05T13:27:45.781Z,2.25
2022-11-05T13:30:18.459Z,5.38
2022-11-05T13:32:49.134Z,3.30
2022-11-05T13:35:26.497Z,3.83
2022-11-05T13:38:16.730Z,4.57
2022-11-05T13:41:00.508Z,2.83
2022-11-05T13:43:42.715Z,3.13
2022-11-05T13:46:28.473Z,2.90
2022-11-05T13:49:10.612Z,4.68
2022-11-05T13:51:55.010Z,3.05
2022-11-05T13:54:43.014Z,3.13
2022-11-05T13:57:42.756Z,5.05
2022-11-05T14:00:18.895Z,4.68
2022-11-05T14:02:51.491Z,3.08
2022-11-05T14:05:30.827Z,4.38
2022-11-05T14:08:02.436Z,3.25
2022-11-05T14:10:37.946Z,4.75
2022-11-05T14:13:21.660Z,4.82
2022-11-05T14:16:01.677Z,3.85
2022-11-05T14:18:42.181Z,4.80
2022-11-05T14:21:48.245Z,4.80
2022-11-05T14:24:45.681Z,3.92
2022-11-05T14:27:45.288Z,5.05
2022-11-05T14:30:44.718Z,3.50
2022-11-05T14:33:19.020Z,4.03
2022-11-05T14:35:46.910Z,4.07
2022-11-05T14:38:22.044Z,3.50
2022-11-05T14:41:00.020Z,5.82
2022-11-05T14:43:32.382Z,3.47
2022-11-05T14:46:02.624Z,2.60
2022-11-05T14:48:40.604Z,6.63
2022-11-05T14:51:28.905Z,4.15
2022-11-05T14:54:03.445Z,5.97
2022-11-05T14:56:44.470Z,5.32
2022-11-05T14:59:35.977Z,6.28
2022-11-05T15:02:05.403Z,4.63
2022-11-05T15:04:35.801Z,4.25
2022-11-05T15:07:35.444Z,2.85
2022-11-05T15:10:10.850Z,5.57
2022-11-05T15:12:44.426Z,4.15
2022-11-05T15:15:23.578Z,4.88
2022-11-05T15:18:01.531Z,3.38
2022-11-05T15:20:40.235Z,4.10
2022-11-05T15:23:12.395Z,3.42
2022-11-05T15:25:51.848Z,2.70
2022-11-05T15:28:29.708Z,5.25
2022-11-05T15:31:02.075Z,4.10
2022-11-05T15:33:30.609Z,4.30
2022-11-05T15:36:11.801Z,5.30
2022-11-05T15:38:56.657Z,4.90
2022-11-05T15:41:34.449Z,5.25
2022-11-05T15:44:03.687Z,3.13
2022-11-05T15:46:31.531Z,6.57
2022-11-05T15:49:01.614Z,7.47
2022-11-05T15:51:31.082Z,8.35
2022-11-05T15:54:28.636Z,5.13
2022-11-05T15:56:52.330Z,4.20
2022-11-05T15:59:23.181Z,6.03
2022-11-05T16:01:54.205Z,3.13
2022-11-05T16:04:24.277Z,2.55
2022-11-05T16:06:55.108Z,4.10
2022-11-05T16:09:25.590Z,5.10
2022-11-05T16:12:12.972Z,4.35
2022-11-05T16:14:42.932Z,4.55
2022-11-05T16:17:21.305Z,4.13
2022-11-05T16:19:49.983Z,4.18
2022-11-05T16:22:18.600Z,6.70
2022-11-05T16:24:47.025Z,7.53
2022-11-05T16:27:19.327Z,7.03
2022-11-05T16:29:52.716Z,8.65
2022-11-05T16:32:29.686Z,7.78
2022-11-05T16:35:00.986Z,8.38
2022-11-05T16:37:30.882Z,8.02
2022-11-05T16:39:58.750Z,7.93
2022-11-05T16:42:40.939Z,10.38
2022-11-05T16:45:13.599Z,8.10
2022-11-05T16:47:42.203Z,10.25
2022-11-05T16:50:18.273Z,8.25
2022-11-05T16:52:47.046Z,10.88
2022-11-05T16:55:15.633Z,10.30
2022-11-05T16:57:45.138Z,8.43
2022-11-05T17:00:18.751Z,9.68
2022-11-05T17:02:46.891Z,10.52
2022-11-05T17:05:20.794Z,9.82
2022-11-05T17:07:48.781Z,11.25
2022-11-05T17:10:17.457Z,17.00
2022-11-05T17:12:45.680Z,12.00
2022-11-05T17:15:24.527Z,11.68
2022-11-05T17:17:53.360Z,13.82
2022-11-05T17:20:39.443Z,13.15
2022-11-05T17:23:08.028Z,13.70
2022-11-05T17:25:36.156Z,10.30
2022-11-05T17:28:05.660Z,10.73
2022-11-05T17:30:34.967Z,10.93
2022-11-05T17:33:03.041Z,12.25
2022-11-05T17:35:30.991Z,12.98
2022-11-05T17:37:59.102Z,12.40
2022-11-05T17:40:28.304Z,11.15
2022-11-05T17:42:58.966Z,12.88
2022-11-05T17:45:26.929Z,12.98
2022-11-05T17:47:56.238Z,10.57
2022-11-05T17:50:24.149Z,13.38
2022-11-05T17:52:52.020Z,10.98
2022-11-05T17:55:20.208Z,12.15
2022-11-05T17:57:49.574Z,12.60
2022-11-05T18:00:20.109Z,11.82
2022-11-05T18:02:49.501Z,13.05
2022-11-05T18:05:19.750Z,11.27
2022-11-05T18:07:48.033Z,10.52
2022-11-05T18:10:16.504Z,13.95
2022-11-05T18:12:44.847Z,16.05
2022-11-05T18:15:13.469Z,15.00
2022-11-05T18:17:41.984Z,23.45
2022-11-05T18:20:17.371Z,16.48
2022-11-05T18:22:50.920Z,16.63
2022-11-05T18:25:19.140Z,17.88
2022-11-05T18:27:47.085Z,13.18
2022-11-05T18:30:15.836Z,13.30
2022-11-05T18:32:44.470Z,11.38
2022-11-05T18:35:13.143Z,13.93
2022-11-05T18:37:41.404Z,14.15
2022-11-05T18:40:11.586Z,13.75
2022-11-05T18:42:39.636Z,13.88
2022-11-05T18:45:09.650Z,14.30
2022-11-05T18:47:37.828Z,12.73
2022-11-05T18:50:10.342Z,13.90
2022-11-05T18:52:38.250Z,15.20
2022-11-05T18:55:07.336Z,14.07
2022-11-05T18:57:40.016Z,16.10
2022-11-05T19:00:09.261Z,13.93
2022-11-05T19:02:37.295Z,11.95
2022-11-05T19:07:53.571Z,10.65
2022-11-05T19:10:21.448Z,12.43
2022-11-05T19:12:50.693Z,13.75
2022-11-05T19:15:18.787Z,13.52
2022-11-05T19:17:47.864Z,13.32
2022-11-05T19:20:15.738Z,12.40
2022-11-05T19:22:43.577Z,15.82
2022-11-05T19:25:11.774Z,14.38
2022-11-05T19:27:39.723Z,13.55
2022-11-05T19:30:10.154Z,12.23
2022-11-05T19:32:38.002Z,15.57
2022-11-05T19:35:06.530Z,10.38
2022-11-05T19:37:34.380Z,12.63
2022-11-05T19:40:02.354Z,11.35
2022-11-05T19:42:30.227Z,13.77
2022-11-05T19:45:03.156Z,12.77
2022-11-05T19:47:46.161Z,13.02
2022-11-05T19:50:14.202Z,15.57
2022-11-05T19:52:42.074Z,14.05
2022-11-05T19:55:12.287Z,21.33
2022-11-05T19:57:40.385Z,25.40
2022-11-05T20:00:09.646Z,23.90
2022-11-05T20:02:38.831Z,29.58
2022-11-05T20:05:08.721Z,19.10
2022-11-05T20:07:36.586Z,16.60
2022-11-05T20:10:05.241Z,22.77
2022-11-05T20:12:33.109Z,17.00
2022-11-05T20:15:00.961Z,15.73
2022-11-05T20:17:28.829Z,16.65
2022-11-05T20:19:57.144Z,17.00
2022-11-05T20:22:26.377Z,17.58
2022-11-05T20:24:54.212Z,15.10
2022-11-05T20:27:22.060Z,14.57
2022-11-05T20:29:50.116Z,14.35
2022-11-05T20:32:18.081Z,16.15
2022-11-05T20:34:45.924Z,15.73
2022-11-05T20:37:13.805Z,15.27
2022-11-05T20:39:43.204Z,16.23
2022-11-05T20:42:11.081Z,18.90
2022-11-05T20:44:39.041Z,13.75
2022-11-05T20:47:07.005Z,15.23
2022-11-05T20:49:34.913Z,13.20
2022-11-05T20:52:02.770Z,12.20
2022-11-05T20:54:30.654Z,14.30
2022-11-05T20:57:00.336Z,19.52
2022-11-05T20:59:28.334Z,17.67
2022-11-05T21:01:56.348Z,17.38
2022-11-05T21:04:24.321Z,18.73
2022-11-05T21:06:53.255Z,15.48
2022-11-05T21:09:21.733Z,14.98
2022-11-05T21:12:07.034Z,14.55
2022-11-05T21:14:36.239Z,16.92
2022-11-05T21:17:04.640Z,13.43
2022-11-05T21:19:33.081Z,61.60
2022-11-05T21:22:01.023Z,27.23
2022-11-05T21:24:28.926Z,13.00
2022-11-05T21:26:57.286Z,15.18
2022-11-05T21:29:25.159Z,16.63
2022-11-05T21:31:54.477Z,14.60
2022-11-05T21:34:22.338Z,16.88
2022-11-05T21:36:51.464Z,14.18
2022-11-05T21:39:19.742Z,14.90
2022-11-05T21:41:47.648Z,14.85
2022-11-05T21:44:15.611Z,16.05
2022-11-05T21:46:43.472Z,14.57
2022-11-05T21:49:14.395Z,14.68
2022-11-05T21:51:59.805Z,14.68
2022-11-05T21:54:45.144Z,19.30
2022-11-05T21:57:34.631Z,19.10
2022-11-05T22:00:11.451Z,33.25
2022-11-05T22:02:39.565Z,37.15
2022-11-05T22:05:09.681Z,31.38
2022-11-05T22:07:39.553Z,22.90
2022-11-05T22:10:15.886Z,21.50
2022-11-05T22:12:45.101Z,19.10
2022-11-05T22:15:13.140Z,28.08
2022-11-05T22:17:45.483Z,22.88
2022-11-05T22:20:16.536Z,28.60
2022-11-05T22:22:44.455Z,43.58
2022-11-05T22:25:13.838Z,42.15
2022-11-05T22:27:42.038Z,38.08
2022-11-05T22:30:10.756Z,24.13
2022-11-05T22:32:39.598Z,26.42
2022-11-05T22:35:08.442Z,107.28
2022-11-05T22:37:37.815Z,31.27
2022-11-05T22:40:06.568Z,19.15
2022-11-05T22:42:34.694Z,13.90
2022-11-05T22:45:02.671Z,16.25
2022-11-05T22:47:30.662Z,14.85
2022-11-05T22:49:58.714Z,15.93
2022-11-05T22:52:26.667Z,33.72
2022-11-05T22:54:56.127Z,32.70
2022-11-05T22:57:24.161Z,54.83
2022-11-05T22:59:52.442Z,41.10
